QFA480 YMML-YSSY
Flight info
| Callsign | QFA480 |
|---|---|
| Flight time | 1h 7m |
| Altitude | 37000 |
| Route | ML H129 DOSEL Y59 RIVET |
| Aircraft | A21N/M-SDE2E3FGHIRWXY/LB1 |
Departure
| Time | 2026-05-04 08:19 |
|---|---|
| Airport | Melbourne Airport (YMML) |
Arrival
| Time | 2026-05-04 09:27 |
|---|---|
| Airport | Sydney Kingsford Smith International Airport (YSSY) |
| Time | Latitude | Longitude | Altitude | Speed | Heading |
|---|---|---|---|---|---|
| 2026-05-04 07:36 | -37.66764 | 144.85019 | 405 ft | 0 kts | 262° |
| 2026-05-04 08:05 | -37.66763 | 144.85028 | 402 ft | 0 kts | 262° |
| 2026-05-04 08:06 | -37.66761 | 144.85062 | 399 ft | 0 kts | 277° |
| 2026-05-04 08:06 | -37.66768 | 144.85086 | 399 ft | 0 kts | 338° |
| 2026-05-04 08:06 | -37.66775 | 144.85088 | 401 ft | 0 kts | 2° |
| 2026-05-04 08:10 | -37.66542 | 144.84900 | 411 ft | 20 kts | 261° |
| 2026-05-04 08:11 | -37.66625 | 144.84765 | 408 ft | 21 kts | 222° |
| 2026-05-04 08:11 | -37.66677 | 144.84405 | 401 ft | 22 kts | 261° |
| 2026-05-04 08:11 | -37.66701 | 144.84206 | 401 ft | 24 kts | 262° |
| 2026-05-04 08:12 | -37.66739 | 144.84004 | 398 ft | 25 kts | 229° |
| 2026-05-04 08:12 | -37.66884 | 144.84007 | 394 ft | 9 kts | 166° |
| 2026-05-04 08:12 | -37.66960 | 144.84024 | 392 ft | 14 kts | 174° |
| 2026-05-04 08:12 | -37.67121 | 144.84045 | 387 ft | 28 kts | 171° |
| 2026-05-04 08:13 | -37.67317 | 144.84082 | 381 ft | 29 kts | 172° |
| 2026-05-04 08:13 | -37.67505 | 144.84116 | 376 ft | 26 kts | 171° |
| 2026-05-04 08:13 | -37.67645 | 144.84143 | 372 ft | 11 kts | 171° |
| 2026-05-04 08:13 | -37.67677 | 144.84149 | 373 ft | 0 kts | 172° |
| 2026-05-04 08:14 | -37.67690 | 144.84152 | 372 ft | 4 kts | 172° |
| 2026-05-04 08:14 | -37.67728 | 144.84159 | 370 ft | 7 kts | 172° |
| 2026-05-04 08:16 | -37.67871 | 144.84132 | 370 ft | 0 kts | 261° |
| 2026-05-04 08:17 | -37.67872 | 144.84129 | 370 ft | 2 kts | 261° |
| 2026-05-04 08:17 | -37.67883 | 144.84026 | 364 ft | 15 kts | 262° |
| 2026-05-04 08:19 | -37.66196 | 144.83646 | 640 ft | 153 kts | 352° |
| 2026-05-04 08:19 | -37.65084 | 144.83428 | 1190 ft | 171 kts | 349° |
| 2026-05-04 08:20 | -37.63857 | 144.83186 | 1790 ft | 186 kts | 348° |
| 2026-05-04 08:20 | -37.62509 | 144.82925 | 2315 ft | 206 kts | 348° |
| 2026-05-04 08:20 | -37.61045 | 144.82647 | 2875 ft | 224 kts | 347° |
| 2026-05-04 08:20 | -37.59445 | 144.82461 | 3637 ft | 238 kts | 356° |
| 2026-05-04 08:21 | -37.57787 | 144.82956 | 4570 ft | 254 kts | 16° |
| 2026-05-04 08:21 | -37.56173 | 144.83952 | 5506 ft | 261 kts | 20° |
| 2026-05-04 08:21 | -37.54538 | 144.85005 | 6420 ft | 266 kts | 20° |
| 2026-05-04 08:21 | -37.52864 | 144.86064 | 7313 ft | 270 kts | 20° |
| 2026-05-04 08:22 | -37.51164 | 144.87119 | 8181 ft | 275 kts | 20° |
| 2026-05-04 08:22 | -37.49448 | 144.88176 | 9028 ft | 280 kts | 19° |
| 2026-05-04 08:24 | -37.38034 | 145.01666 | 13490 ft | 368 kts | 51° |
| 2026-05-04 08:24 | -37.36571 | 145.04285 | 14231 ft | 372 kts | 51° |
| 2026-05-04 08:24 | -37.35066 | 145.06963 | 14954 ft | 376 kts | 51° |
| 2026-05-04 08:24 | -37.33539 | 145.09665 | 15680 ft | 379 kts | 51° |
| 2026-05-04 08:25 | -37.32522 | 145.11457 | 16173 ft | 382 kts | 51° |
| 2026-05-04 08:25 | -37.30968 | 145.14201 | 16898 ft | 385 kts | 51° |
| 2026-05-04 08:25 | -37.28891 | 145.17867 | 17844 ft | 390 kts | 50° |
| 2026-05-04 08:25 | -37.27842 | 145.19711 | 18304 ft | 392 kts | 50° |
| 2026-05-04 08:26 | -37.26242 | 145.22509 | 18904 ft | 395 kts | 50° |
| 2026-05-04 08:27 | -37.14760 | 145.42671 | 23043 ft | 417 kts | 50° |
| 2026-05-04 08:28 | -37.13059 | 145.45642 | 23588 ft | 420 kts | 49° |
| 2026-05-04 08:28 | -37.11349 | 145.48626 | 23896 ft | 423 kts | 49° |
| 2026-05-04 08:28 | -37.09625 | 145.51622 | 23980 ft | 424 kts | 49° |
| 2026-05-04 08:28 | -37.07901 | 145.54622 | 23990 ft | 423 kts | 49° |
| 2026-05-04 08:29 | -37.06198 | 145.57587 | 24089 ft | 424 kts | 48° |
| 2026-05-04 08:29 | -37.04464 | 145.60597 | 24491 ft | 427 kts | 48° |
| 2026-05-04 08:29 | -37.02718 | 145.63629 | 24949 ft | 429 kts | 47° |
| 2026-05-04 08:31 | -36.90221 | 145.85204 | 27865 ft | 447 kts | 45° |
| 2026-05-04 08:33 | -36.77175 | 146.07634 | 30349 ft | 465 kts | 44° |
| 2026-05-04 08:33 | -36.75257 | 146.10915 | 30609 ft | 468 kts | 44° |
| 2026-05-04 08:35 | -36.61787 | 146.33899 | 32729 ft | 470 kts | 44° |
| 2026-05-04 08:35 | -36.59846 | 146.37185 | 33004 ft | 471 kts | 44° |
| 2026-05-04 08:35 | -36.57905 | 146.40478 | 33292 ft | 471 kts | 45° |
| 2026-05-04 08:35 | -36.55986 | 146.43737 | 33546 ft | 471 kts | 45° |
| 2026-05-04 08:37 | -36.44320 | 146.63483 | 34848 ft | 474 kts | 45° |
| 2026-05-04 08:37 | -36.42356 | 146.66796 | 35036 ft | 475 kts | 45° |
| 2026-05-04 08:37 | -36.40391 | 146.70100 | 35220 ft | 475 kts | 45° |
| 2026-05-04 08:38 | -36.38447 | 146.73367 | 35390 ft | 476 kts | 45° |
| 2026-05-04 08:38 | -36.36472 | 146.76678 | 35587 ft | 476 kts | 45° |
| 2026-05-04 08:38 | -36.34501 | 146.79980 | 35773 ft | 476 kts | 45° |
| 2026-05-04 08:40 | -36.20671 | 147.03097 | 36980 ft | 477 kts | 45° |
| 2026-05-04 08:40 | -36.18673 | 147.06416 | 37075 ft | 478 kts | 45° |
| 2026-05-04 08:41 | -36.14691 | 147.13006 | 37047 ft | 477 kts | 45° |
| 2026-05-04 08:41 | -36.10746 | 147.19545 | 37043 ft | 476 kts | 45° |
| 2026-05-04 08:42 | -36.06777 | 147.26100 | 37042 ft | 476 kts | 45° |
| 2026-05-04 08:42 | -36.02813 | 147.32664 | 37042 ft | 477 kts | 45° |
| 2026-05-04 08:43 | -35.98838 | 147.39233 | 37052 ft | 476 kts | 45° |
| 2026-05-04 08:43 | -35.94883 | 147.45755 | 37053 ft | 477 kts | 44° |
| 2026-05-04 08:44 | -35.90898 | 147.52307 | 37059 ft | 476 kts | 44° |
| 2026-05-04 08:46 | -35.74918 | 147.78406 | 37071 ft | 477 kts | 44° |
| 2026-05-04 08:46 | -35.70927 | 147.84890 | 37071 ft | 477 kts | 44° |
| 2026-05-04 08:47 | -35.66916 | 147.91408 | 37070 ft | 477 kts | 44° |
| 2026-05-04 08:47 | -35.62924 | 147.97886 | 37077 ft | 477 kts | 44° |
| 2026-05-04 08:48 | -35.58907 | 148.04385 | 37086 ft | 477 kts | 44° |
| 2026-05-04 08:48 | -35.54881 | 148.10883 | 37079 ft | 477 kts | 43° |
| 2026-05-04 08:49 | -35.50848 | 148.17378 | 37080 ft | 477 kts | 44° |
| 2026-05-04 08:50 | -35.36784 | 148.40005 | 37079 ft | 477 kts | 43° |
| 2026-05-04 08:51 | -35.32739 | 148.46467 | 37080 ft | 477 kts | 43° |
| 2026-05-04 08:51 | -35.28696 | 148.52931 | 37079 ft | 477 kts | 43° |
| 2026-05-04 08:52 | -35.24637 | 148.59376 | 37085 ft | 477 kts | 43° |
| 2026-05-04 08:52 | -35.20588 | 148.65782 | 37076 ft | 479 kts | 43° |
| 2026-05-04 08:54 | -35.04327 | 148.91534 | 37072 ft | 478 kts | 43° |
| 2026-05-04 08:55 | -35.00253 | 148.97963 | 37067 ft | 477 kts | 43° |
| 2026-05-04 08:55 | -34.96186 | 149.04342 | 37069 ft | 477 kts | 43° |
| 2026-05-04 09:01 | -34.58405 | 149.74756 | 28299 ft | 449 kts | 53° |
| 2026-05-04 09:01 | -34.56944 | 149.78080 | 27693 ft | 443 kts | 53° |
| 2026-05-04 09:01 | -34.55507 | 149.81363 | 27093 ft | 437 kts | 53° |
| 2026-05-04 09:01 | -34.54099 | 149.84567 | 26488 ft | 432 kts | 53° |
| 2026-05-04 09:02 | -34.52687 | 149.87780 | 25884 ft | 427 kts | 53° |
| 2026-05-04 09:02 | -34.51291 | 149.90940 | 25303 ft | 422 kts | 53° |
| 2026-05-04 09:02 | -34.49927 | 149.94024 | 24802 ft | 416 kts | 53° |
| 2026-05-04 09:02 | -34.48579 | 149.97080 | 24508 ft | 403 kts | 53° |
| 2026-05-04 09:03 | -34.47274 | 150.00029 | 24028 ft | 390 kts | 52° |
| 2026-05-04 09:03 | -34.45997 | 150.02905 | 23307 ft | 384 kts | 52° |
| 2026-05-04 09:03 | -34.44748 | 150.05719 | 22514 ft | 380 kts | 53° |
| 2026-05-04 09:03 | -34.43499 | 150.08534 | 21847 ft | 377 kts | 53° |
| 2026-05-04 09:04 | -34.42257 | 150.11326 | 21310 ft | 374 kts | 53° |
| 2026-05-04 09:04 | -34.41042 | 150.14058 | 20882 ft | 362 kts | 54° |
| 2026-05-04 09:04 | -34.39865 | 150.16716 | 20336 ft | 354 kts | 54° |
| 2026-05-04 09:04 | -34.38701 | 150.19327 | 19857 ft | 350 kts | 54° |
| 2026-05-04 09:05 | -34.37557 | 150.21883 | 19391 ft | 348 kts | 54° |
| 2026-05-04 09:05 | -34.36413 | 150.24453 | 18936 ft | 345 kts | 54° |
| 2026-05-04 09:05 | -34.35273 | 150.27006 | 18486 ft | 343 kts | 54° |
| 2026-05-04 09:05 | -34.34142 | 150.29540 | 18007 ft | 339 kts | 54° |
| 2026-05-04 09:06 | -34.33027 | 150.32042 | 17556 ft | 336 kts | 54° |
| 2026-05-04 09:07 | -34.25469 | 150.48927 | 14682 ft | 318 kts | 55° |
| 2026-05-04 09:08 | -34.24421 | 150.51270 | 14267 ft | 317 kts | 55° |
| 2026-05-04 09:08 | -34.23379 | 150.53603 | 13873 ft | 313 kts | 55° |
| 2026-05-04 09:08 | -34.22339 | 150.55924 | 13441 ft | 311 kts | 55° |
| 2026-05-04 09:08 | -34.21657 | 150.57449 | 13164 ft | 310 kts | 55° |
| 2026-05-04 09:09 | -34.20287 | 150.60504 | 12631 ft | 308 kts | 55° |
| 2026-05-04 09:09 | -34.19284 | 150.62746 | 12235 ft | 306 kts | 55° |
| 2026-05-04 09:09 | -34.18274 | 150.64998 | 11828 ft | 304 kts | 55° |
| 2026-05-04 09:09 | -34.17269 | 150.67237 | 11422 ft | 303 kts | 55° |
| 2026-05-04 09:10 | -34.16599 | 150.68722 | 11161 ft | 302 kts | 55° |
| 2026-05-04 09:10 | -34.15600 | 150.70943 | 10786 ft | 299 kts | 55° |
| 2026-05-04 09:10 | -34.14606 | 150.73148 | 10509 ft | 298 kts | 55° |
| 2026-05-04 09:10 | -34.13293 | 150.76055 | 10189 ft | 297 kts | 55° |
| 2026-05-04 09:11 | -34.12635 | 150.77503 | 10005 ft | 295 kts | 55° |
| 2026-05-04 09:11 | -34.11653 | 150.79667 | 9622 ft | 293 kts | 55° |
| 2026-05-04 09:11 | -34.10676 | 150.81824 | 9209 ft | 291 kts | 55° |
| 2026-05-04 09:11 | -34.09712 | 150.83958 | 8831 ft | 289 kts | 55° |
| 2026-05-04 09:12 | -34.08750 | 150.86096 | 8517 ft | 289 kts | 56° |
| 2026-05-04 09:12 | -34.07793 | 150.88223 | 8239 ft | 286 kts | 55° |
| 2026-05-04 09:14 | -34.04167 | 151.03513 | 6759 ft | 303 kts | 127° |
| 2026-05-04 09:14 | -34.05661 | 151.05316 | 6299 ft | 305 kts | 136° |
| 2026-05-04 09:14 | -34.07223 | 151.07008 | 5842 ft | 305 kts | 140° |
| 2026-05-04 09:14 | -34.09008 | 151.08360 | 5402 ft | 303 kts | 162° |
| 2026-05-04 09:15 | -34.11059 | 151.08888 | 5024 ft | 299 kts | 173° |
| 2026-05-04 09:15 | -34.13105 | 151.09275 | 4656 ft | 296 kts | 172° |
| 2026-05-04 09:15 | -34.15131 | 151.09701 | 4259 ft | 294 kts | 171° |
| 2026-05-04 09:15 | -34.17130 | 151.10156 | 3905 ft | 289 kts | 170° |
| 2026-05-04 09:17 | -34.28464 | 151.18612 | 3478 ft | 241 kts | 112° |
| 2026-05-04 09:18 | -34.28745 | 151.20560 | 3320 ft | 231 kts | 79° |
| 2026-05-04 09:18 | -34.28145 | 151.22270 | 2831 ft | 218 kts | 48° |
| 2026-05-04 09:18 | -34.27031 | 151.23458 | 2419 ft | 205 kts | 26° |
| 2026-05-04 09:18 | -34.25741 | 151.24123 | 2755 ft | 202 kts | 11° |
| 2026-05-04 09:19 | -34.24351 | 151.24425 | 2923 ft | 202 kts | 4° |
| 2026-05-04 09:19 | -34.23002 | 151.24487 | 2971 ft | 191 kts | 356° |
| 2026-05-04 09:19 | -34.21670 | 151.24380 | 2989 ft | 192 kts | 352° |
| 2026-05-04 09:19 | -34.20356 | 151.24173 | 3002 ft | 189 kts | 349° |
| 2026-05-04 09:20 | -34.19048 | 151.23908 | 2995 ft | 189 kts | 349° |
| 2026-05-04 09:20 | -34.17776 | 151.23626 | 2994 ft | 186 kts | 346° |
| 2026-05-04 09:20 | -34.16582 | 151.23323 | 2976 ft | 165 kts | 347° |
| 2026-05-04 09:20 | -34.15510 | 151.23045 | 2903 ft | 150 kts | 347° |
| 2026-05-04 09:21 | -34.14530 | 151.22789 | 2770 ft | 137 kts | 347° |
| 2026-05-04 09:21 | -34.13615 | 151.22549 | 2716 ft | 135 kts | 348° |
| 2026-05-04 09:21 | -34.12693 | 151.22309 | 2755 ft | 135 kts | 347° |
| 2026-05-04 09:21 | -34.11772 | 151.22068 | 2756 ft | 135 kts | 347° |
| 2026-05-04 09:22 | -34.10904 | 151.21841 | 2735 ft | 124 kts | 348° |
| 2026-05-04 09:22 | -34.10077 | 151.21625 | 2672 ft | 122 kts | 347° |
| 2026-05-04 09:22 | -34.09248 | 151.21408 | 2548 ft | 122 kts | 347° |
| 2026-05-04 09:22 | -34.08415 | 151.21190 | 2395 ft | 123 kts | 347° |
| 2026-05-04 09:23 | -34.07577 | 151.20972 | 2239 ft | 123 kts | 348° |
| 2026-05-04 09:23 | -34.06737 | 151.20752 | 2075 ft | 123 kts | 347° |
| 2026-05-04 09:23 | -34.05896 | 151.20533 | 1908 ft | 122 kts | 348° |
| 2026-05-04 09:23 | -34.05072 | 151.20318 | 1758 ft | 122 kts | 349° |
| 2026-05-04 09:25 | -33.99182 | 151.18758 | 645 ft | 123 kts | 352° |
| 2026-05-04 09:25 | -33.98353 | 151.18538 | 435 ft | 121 kts | 353° |
| 2026-05-04 09:26 | -33.97524 | 151.18345 | 326 ft | 117 kts | 353° |
| 2026-05-04 09:26 | -33.96696 | 151.18128 | 165 ft | 123 kts | 352° |
| 2026-05-04 09:26 | -33.95878 | 151.17913 | 41 ft | 115 kts | 352° |
| 2026-05-04 09:26 | -33.95226 | 151.17752 | 34 ft | 67 kts | 348° |
| 2026-05-04 09:27 | -33.94858 | 151.17661 | 34 ft | 50 kts | 349° |
| 2026-05-04 09:27 | -33.94616 | 151.17654 | 34 ft | 17 kts | 10° |
| 2026-05-04 09:27 | -33.94508 | 151.17685 | 35 ft | 15 kts | 16° |
| 2026-05-04 09:27 | -33.94438 | 151.17712 | 35 ft | 7 kts | 20° |
| 2026-05-04 09:28 | -33.94372 | 151.17736 | 35 ft | 19 kts | 6° |
| 2026-05-04 09:28 | -33.94228 | 151.17703 | 35 ft | 22 kts | 345° |
| 2026-05-04 09:28 | -33.94072 | 151.17656 | 34 ft | 24 kts | 346° |
| 2026-05-04 09:28 | -33.93905 | 151.17609 | 34 ft | 26 kts | 348° |
| 2026-05-04 09:29 | -33.93722 | 151.17566 | 34 ft | 28 kts | 349° |
| 2026-05-04 09:29 | -33.93528 | 151.17515 | 35 ft | 29 kts | 347° |
| 2026-05-04 09:29 | -33.93318 | 151.17489 | 35 ft | 31 kts | 349° |
| 2026-05-04 09:29 | -33.93153 | 151.17446 | 36 ft | 23 kts | 347° |
| 2026-05-04 09:30 | -33.93009 | 151.17422 | 36 ft | 16 kts | 26° |
| 2026-05-04 09:30 | -33.92997 | 151.17548 | 36 ft | 18 kts | 101° |
| 2026-05-04 09:30 | -33.93030 | 151.17700 | 35 ft | 20 kts | 115° |
| 2026-05-04 09:30 | -33.93072 | 151.17864 | 35 ft | 19 kts | 100° |
| 2026-05-04 09:31 | -33.93084 | 151.17956 | 35 ft | 7 kts | 99° |
| 2026-05-04 09:31 | -33.93117 | 151.17977 | 35 ft | 1 kts | 198° |
| 2026-05-04 09:31 | -33.93137 | 151.17974 | 35 ft | 5 kts | 191° |
| 2026-05-04 09:31 | -33.93159 | 151.17969 | 35 ft | 0 kts | 190° |